Wastedo, Minnesota
Current Conditions -  °F | °C
As of 12:54 AM on Friday 19 Dec 2014 (Local Time) from KSYN Reporting Station
Overcast Overcast  
Wind Chill: 23°   Ceiling: 7500
Heat Index: 23°   Visibility: 10mi
Dew Point: 17°   Wind: 3mph
Humidity: 78%   Direction: 160°SSE
Pressure: 30.26"   Gusts: NA
Location:  44.4763°N, 92.8054°W
Report Text: KSYN 190654Z AUTO 16003KT 10SM OVC075 M05/M08 A3026 RMK AO2 T10521085
Loading
Personal Weather Stations






























Interactive Weather Map New forecast layout! Learn more

10-Day Weather Forecast

Advertisements
Track Severe Weather on mobile